Weather observations for the past three days for
Jacksonville, Cherokee County Airport
Metric (Imperial)
Date Time (cdt) Wind (kph) Vis. (km) Weather Sky Cond. Temperature (ºC) Relative Humidity Wind Chill (°C) Heat Index (°C) Pressure Precipitation (cm)
Air Dwpt 6 hour altimeter (cm) sea level (mb) 1 hr 3 hr 6 hr
Max. Min.
04 21:55 S 19 G 30 16.09 Fair CLR 21.4 17.6 79% 75.62 0.0
04 21:35 S 13 14.48 Fair CLR 21.2 17.2 78% 75.64 0.0
04 21:15 S 17 14.48 Fair CLR 21.6 16.8 74% 75.64 0.0
04 20:55 S 17 14.48 Fair CLR 22.1 16.4 70% 75.62 0.0
04 20:35 S 11 14.48 Fair CLR 22.2 16.3 69% 75.62 0.0
04 20:15 S 9 12.87 Fair CLR 22.7 16 66% 75.59 0.0
04 19:55 S 11 12.87 Fair CLR 23.5 15.6 61% 75.59 0.0
04 19:35 S 15 G 28 11.27 Fair CLR 24 15.4 59% 25 75.59 0.0
04 19:15 S 11 11.27 Fair CLR 24.4 15.2 57% 26 75.62 0.0
04 18:55 S 15 11.27 Fair CLR 25 14.9 26.7 24.2 54% 26 75.62 0.0
04 18:35 S 20 12.87 Fair CLR 25.4 14.7 52% 26 75.62 0.0
04 18:15 S 17 12.87 Fair CLR 25.7 14.5 50% 26 75.64 0.0
04 17:55 S 22 12.87 Fair CLR 25.7 14.3 49% 26 75.67 0.0
04 17:35 S 19 G 28 12.87 Fair CLR 26.2 14.4 48% 27 75.67 0.0
04 17:15 S 15 12.87 Fair CLR 26.6 14.5 47% 27 75.69 0.0
04 16:55 S 22 G 35 12.87 Fair CLR 26.4 13.6 45% 27 75.72 0.0
04 16:35 SW 13 12.87 Fair CLR 26.6 13.8 45% 27 75.74 0.0
04 16:15 S 20 G 31 12.87 Fair CLR 26.4 13.2 44% 27 75.74 0.0
04 15:55 Vrbl 11 12.87 A Few Clouds FEW370 25.9 12.9 45% 26 75.79 0.0
04 15:35 S 22 14.48 A Few Clouds FEW290 25.9 12.8 44% 26 75.82 0.0
04 15:15 SW 19 G 30 12.87 A Few Clouds FEW360 25.8 12 42% 26 75.84 0.0
04 14:55 S 19 12.87 A Few Clouds FEW370 25.5 11.7 42% 26 75.87 0.0
04 14:35 S 11 G 35 12.87 Fair CLR 25.9 12.1 42% 26 75.9 0.0
04 14:15 S 13 14.48 A Few Clouds FEW340 25.5 11.8 42% 26 75.92 0.0
04 13:55 S 15 12.87 A Few Clouds FEW300 25.2 11.7 43% 26 75.92 0.0
04 13:35 SW 17 G 31 12.87 A Few Clouds FEW360 24.7 11.2 43% 26 75.97 0.0
04 13:15 S 20 G 30 12.87 Partly Cloudy FEW280 SCT380 24.8 12 45% 26 75.97 0.0
04 12:55 S 11 G 28 14.48 A Few Clouds FEW280 24.2 11.8 24.2 13.8 46% 25 76 0.0
04 12:35 S 20 G 33 12.87 A Few Clouds FEW380 23.8 11.4 46% 76.02 0.0
04 12:15 S 19 G 28 12.87 A Few Clouds FEW370 23.7 12.2 49% 76.02 0.0
04 11:55 S 19 14.48 A Few Clouds FEW320 22.6 11.8 51% 76.07 0.0
04 11:35 S 15 G 28 14.48 Fair CLR 22.6 11.9 51% 76.07 0.0
04 11:15 S 24 G 33 16.09 A Few Clouds FEW380 22.2 11.3 50% 76.1 0.0
04 10:55 S 17 G 33 14.48 Fair CLR 21.5 12.1 55% 76.1 0.0
04 10:35 S 24 G 35 14.48 Fair CLR 21.2 12 56% 76.12 0.0
04 10:15 S 17 G 30 14.48 Fair CLR 20.6 13.2 63% 76.12 0.0
04 09:55 S 17 14.48 Fair CLR 19.3 13.5 69% 76.12 0.0
04 09:35 S 19 G 28 16.09 Fair CLR 18.4 13.2 72% 76.12 0.0
04 09:15 S 17 14.48 Fair CLR 17.8 13.1 74% 76.12 0.0
04 08:55 S 15 16.09 Fair CLR 16.5 12.4 77% 76.12 0.0
04 08:35 S 19 G 28 16.09 Fair CLR 16 12.1 78% 76.12 0.0
04 08:15 S 13 16.09 Fair CLR 15.2 11.9 81% 76.12 0.0
04 07:55 S 11 16.09 Fair CLR 14.6 11.8 83% 76.1 0.0
04 07:35 S 11 16.09 Fair CLR 14.6 11.7 83% 76.1 0.0
04 07:15 S 13 16.09 Fair CLR 14.1 11.5 84% 76.1 0.0
04 06:55 S 13 16.09 Fair CLR 13.7 11.4 16 13.2 86% 76.1 0.0
04 06:35 S 11 16.09 Fair CLR 13.3 11.3 88% 76.07 0.0
04 06:15 S 13 16.09 Fair CLR 13.2 11.4 89% 76.07 0.0
04 05:55 S 11 16.09 Fair CLR 13.6 11.4 87% 76.07 0.0
04 05:35 S 13 16.09 Fair CLR 13.7 11.4 86% 76.07 0.0
04 05:15 S 11 16.09 Fair CLR 13.2 11.5 90% 76.1 0.0
04 04:55 S 11 16.09 Fair CLR 13.8 11.5 86% 76.12 0.0
04 04:35 S 13 16.09 Fair CLR 14 11.6 86% 76.1 0.0
04 04:15 S 11 16.09 Fair CLR 13.9 11.6 86% 76.12 0.0
04 03:55 S 11 16.09 Fair CLR 14.3 11.6 84% 76.12 0.0
04 03:35 S 11 16.09 Fair CLR 14.5 11.4 82% 76.12 0.0
04 03:15 S 11 16.09 Fair CLR 15 11.4 79% 76.12 0.0
04 02:55 S 9 16.09 Fair CLR 14.8 11.5 81% 76.12 0.0
04 02:35 S 11 16.09 Fair CLR 15 11.4 79% 76.15 0.0
04 02:15 S 11 16.09 Fair CLR 15.3 11.5 78% 76.17 0.0
04 01:55 S 9 16.09 Fair CLR 15.8 11.5 76% 76.2 0.0
04 01:35 S 9 16.09 Fair CLR 15.8 11.6 76% 76.23 0.0
04 01:15 S 11 16.09 Fair CLR 16 11.6 75% 76.23 0.0
04 00:55 S 11 16.09 Fair CLR 16.3 11.8 23.7 16.3 75% 76.25 0.0
04 00:35 S 11 16.09 Fair CLR 16.5 12 75% 76.25 0.0
04 00:15 S 9 16.09 Fair CLR 17.3 11.7 70% 76.25 0.0
03 23:55 S 7 16.09 Fair CLR 17.9 11.7 67% 76.25 0.0
03 23:35 S 7 16.09 Fair CLR 17.7 11.7 68% 76.25 0.0
03 23:15 S 6 16.09 Fair CLR 18.2 11.5 65% 76.25 0.0
03 22:55 S 9 16.09 Fair CLR 18.4 11.5 64% 76.25 0.0
03 22:35 S 7 16.09 Fair CLR 18.8 10.8 60% 76.25 0.0
03 22:15 S 6 16.09 Fair CLR 17.4 11.5 68% 76.25 0.0
03 21:55 SW 6 16.09 Fair CLR 20.6 9.7 50% 76.25 0.0
03 21:35 SW 6 16.09 Fair CLR 20.4 9.6 50% 76.25 0.0
03 21:15 SW 6 16.09 Fair CLR 20.7 9.7 49% 76.25 0.0
03 20:55 Calm 16.09 Fair CLR 20.4 10.7 54% 76.23 0.0
03 20:35 Calm 16.09 Fair CLR 20.6 10.8 54% 76.23 0.0
03 20:15 S 6 14.48 Fair CLR 20.7 11.2 55% 76.23 0.0
03 19:55 Calm 12.87 Fair CLR 21.9 10.6 49% 76.2 0.0
03 19:35 S 6 14.48 Fair CLR 22.6 10.5 46% 76.23 0.0
03 19:15 SW 7 9.66 Fair with Haze CLR 23.2 10.4 44% 76.23 0.0
03 18:55 S 9 12.87 A Few Clouds FEW070 23.9 10.5 25.9 23.8 43% 25 76.23 0.0
03 18:35 S 11 12.87 Partly Cloudy SCT070 24.2 10.5 42% 25 76.23 0.0
03 18:15 S 11 12.87 A Few Clouds FEW070 24.8 9.6 38% 26 76.25 0.0
03 17:55 S 13 11.27 Partly Cloudy SCT070 24.9 9.5 38% 26 76.25 0.0
03 17:35 SE 11 12.87 Mostly Cloudy BKN070 25 9.6 38% 26 76.25 0.0
03 17:15 S 11 12.87 Fair CLR 25.4 9 35% 26 76.28 0.0
03 16:55 S 9 11.27 A Few Clouds FEW070 25.7 8.8 34% 26 76.28 0.0
03 16:35 Vrbl 7 11.27 A Few Clouds FEW070 25.4 9.1 36% 26 76.3 0.0
03 16:15 SW 6 11.27 Mostly Cloudy BKN070 25.5 8.7 35% 26 76.33 0.0
03 15:55 SW 13 12.87 Partly Cloudy SCT070 25.7 9 35% 26 76.35 0.0
03 15:35 SW 9 11.27 Partly Cloudy SCT070 25.3 9.2 36% 26 76.38 0.0
03 15:15 W 9 12.87 Partly Cloudy SCT070 25.2 8 34% 26 76.4 0.0
03 14:55 Vrbl 6 11.27 A Few Clouds FEW070 25 8.1 34% 26 76.43 0.0
03 14:35 SW 13 11.27 Partly Cloudy SCT070 23.9 8.5 38% 25 76.45 0.0
03 13:55 W 15 12.87 A Few Clouds FEW340 25 9.3 37% 26 76.5 0.0
03 13:35 W 15 12.87 A Few Clouds FEW300 24.7 8.8 36% 25 76.53 0.0
03 13:15 W 9 12.87 A Few Clouds FEW330 24.5 9.2 38% 25 76.56 0.0
03 12:55 W 15 12.87 Fair CLR 24.1 8.7 24.3 14.3 38% 25 76.58 0.0
03 12:35 Vrbl 11 11.27 A Few Clouds FEW320 24 8.6 38% 25 76.61 0.0
03 12:15 W 15 12.87 A Few Clouds FEW320 23.9 8.7 38% 25 76.61 0.0
03 11:55 W 13 12.87 Fair CLR 23.3 9.1 41% 76.63 0.0
03 11:35 SW 15 12.87 Fair CLR 23.1 9.4 42% 76.63 0.0
03 11:15 W 15 12.87 Fair CLR 22.7 10.4 46% 76.63 0.0
03 10:55 SW 17 12.87 Fair CLR 22.1 10.5 48% 76.63 0.0
03 10:35 Vrbl 11 12.87 Fair CLR 21.8 10.5 49% 76.66 0.0
03 10:15 Vrbl 9 12.87 Fair CLR 21.4 11.6 54% 76.63 0.0
03 09:55 SW 15 12.87 Fair CLR 20.4 11.4 56% 76.63 0.0
03 09:35 SW 11 12.87 Fair CLR 19.7 11.5 59% 76.63 0.0
03 09:15 S 11 14.48 Fair CLR 18.7 12.1 66% 76.63 0.0
03 08:55 SW 11 14.48 A Few Clouds FEW080 17.7 11.4 67% 76.63 0.0
03 08:35 SW 6 14.48 Fair CLR 17.3 11.2 68% 76.63 0.0
03 08:15 SW 7 14.48 A Few Clouds FEW075 16.2 11.2 72% 76.61 0.0
03 07:55 S 7 12.87 Mostly Cloudy BKN075 15.1 10.9 76% 76.58 0.0
03 07:35 S 6 14.48 Mostly Cloudy BKN075 15.2 10.4 73% 76.58 0.0
03 07:15 S 7 14.48 Partly Cloudy SCT075 14.4 10.2 76% 76.58 0.0
03 06:55 S 7 14.48 Fair CLR 14 9.9 16.5 13.8 77% 76.56 0.0
03 06:35 SW 7 16.09 Fair CLR 13.9 10 78% 76.53 0.0
03 06:15 S 6 16.09 Fair CLR 14.4 9.7 74% 76.5 0.0
03 05:55 SW 7 16.09 Fair CLR 14.9 9.4 70% 76.5 0.0
03 05:35 SW 7 16.09 Fair CLR 14.9 9.1 68% 76.48 0.0
03 05:15 SW 7 16.09 Fair CLR 14.7 9.4 71% 76.48 0.0
03 04:55 SW 6 16.09 Fair CLR 14.7 9.4 71% 76.48 0.0
03 04:35 S 7 16.09 Fair CLR 14.6 9.4 71% 76.48 0.0
03 04:15 SW 6 16.09 Fair CLR 14.7 9.3 70% 76.48 0.0
03 03:55 S 7 16.09 Fair CLR 14.9 9.3 69% 76.48 0.0
03 03:35 S 7 16.09 Fair CLR 14.7 9.3 70% 76.45 0.0
03 03:15 S 7 16.09 Fair CLR 14.7 9.3 70% 76.48 0.0
03 02:55 SW 7 16.09 Fair CLR 15.4 9.2 67% 76.48 0.0
03 02:35 SW 9 16.09 Fair CLR 15.4 9.3 67% 76.48 0.0
03 02:15 S 9 16.09 Fair CLR 15.6 8.9 65% 76.48 0.0
03 01:55 S 7 16.09 Fair CLR 15.5 8.6 64% 76.5 0.0
03 01:35 S 7 16.09 Fair CLR 15.8 8.1 60% 76.5 0.0
03 01:15 SW 9 16.09 Fair CLR 16.5 7.6 56% 76.5 0.0
03 00:55 S 6 16.09 Fair CLR 16.2 7.5 21.5 15 57% 76.5 0.0
03 00:35 S 6 16.09 Fair CLR 15.9 7.8 59% 76.48 0.0
03 00:15 S 6 16.09 Fair CLR 15.9 8.4 61% 76.48 0.0
02 23:55 Calm 16.09 Fair CLR 15.6 7.3 58% 76.48 0.0
02 23:35 Calm 16.09 Fair CLR 15.4 7.6 60% 76.48 0.0
02 23:15 Calm 16.09 Fair CLR 16.7 7.5 55% 76.48 0.0
02 22:55 Calm 16.09 Fair CLR 15.7 8.4 62% 76.5 0.0
02 22:35 Calm 16.09 Fair CLR 15.5 8.9 65% 76.48 0.0
02 22:15 Calm 16.09 Fair CLR 17 8.6 58% 76.48 0.0
02 21:55 Calm 16.09 Fair CLR 16.3 9.5 64% 76.45 0.0
02 21:35 Calm 14.48 Fair CLR 16.3 9.5 64% 76.45 0.0
02 21:15 Calm 16.09 Fair CLR 16.8 9.8 64% 76.43 0.0
02 20:55 Calm 14.48 Fair CLR 17.9 9.9 60% 76.43 0.0
02 20:35 Calm 16.09 Fair CLR 18.2 10 59% 76.4 0.0
02 20:15 Calm 12.87 Fair CLR 18.3 10.6 61% 76.4 0.0
02 19:55 Calm 11.27 Fair CLR 19.5 10.3 55% 76.35 0.0
02 19:35 Calm 12.87 Fair CLR 20.7 8.4 45% 76.35 0.0
02 19:15 NE 6 9.66 Fair with Haze CLR 21.2 9.6 48% 76.35 0.0
02 18:55 Calm 12.87 Fair CLR 21.7 8.3 23.5 20.1 42% 76.35 0.0
02 18:35 NE 9 12.87 Fair CLR 22 8 41% 76.35 0.0
02 18:15 NE 7 12.87 Fair CLR 22.2 7.4 39% 76.35 0.0
02 17:55 N 9 12.87 Fair CLR 22.6 7.5 38% 76.35 0.0
02 17:35 NE 9 12.87 A Few Clouds FEW070 22.8 7.8 38% 76.35 0.0
02 17:15 NE 15 12.87 A Few Clouds FEW070 22.8 7.4 37% 76.35 0.0
02 16:55 N 11 12.87 Fair CLR 22.6 6.8 36% 76.35 0.0
02 16:35 Vrbl 6 12.87 A Few Clouds FEW070 22.8 7.5 37% 76.35 0.0
02 16:15 N 13 12.87 Partly Cloudy SCT070 23.3 8.3 38% 76.38 0.0
02 15:55 Vrbl 11 12.87 Partly Cloudy SCT070 22.7 7.8 38% 76.38 0.0
02 15:35 NE 15 12.87 Mostly Cloudy BKN070 22.7 8.6 41% 76.4 0.0
02 15:15 Vrbl 9 11.27 Partly Cloudy FEW060 SCT080 SCT350 23.1 8.3 39% 76.43 0.0
02 14:55 N 13 12.87 A Few Clouds FEW060 22.4 8.4 41% 76.43 0.0
02 14:35 Vrbl 9 12.87 Partly Cloudy SCT060 22.5 9.7 44% 76.43 0.0
02 14:15 N 9 12.87 Mostly Cloudy BKN060 21.8 9.8 47% 76.45 0.0
02 13:55 N 13 12.87 Fair CLR 21.7 10 47% 76.48 0.0
02 13:35 N 9 12.87 A Few Clouds FEW270 21.7 10.2 48% 76.48 0.0
02 13:15 Vrbl 6 12.87 Partly Cloudy SCT046 21.2 10.6 51% 76.5 0.0
02 12:55 NW 9 12.87 Partly Cloudy FEW044 SCT055 SCT310 20.1 10.9 21.1 11.5 56% 76.56 0.0
02 12:35 Vrbl 9 12.87 A Few Clouds FEW043 20.6 11.4 56% 76.56 0.0
02 12:15 N 11 12.87 Partly Cloudy FEW042 SCT380 20.4 12 59% 76.56 0.0
02 11:55 Vrbl 6 12.87 Fair CLR 19.4 12.3 64% 76.56 0.0
02 11:35 Vrbl 6 12.87 Fair CLR 19.5 12.3 63% 76.56 0.0
02 11:15 Vrbl 6 12.87 Fair CLR 19.1 12.4 65% 76.56 0.0
02 10:55 NW 7 12.87 Fair CLR 18.5 11.9 66% 76.56 0.0
02 10:35 Vrbl 7 12.87 Fair CLR 18.4 12 66% 76.56 0.0
02 10:15 Calm 12.87 Fair CLR 17.5 11.8 69% 76.53 0.0
02 09:55 Vrbl 6 14.48 Fair CLR 17.1 12.7 75% 76.53 0.0
02 09:35 Vrbl 7 12.87 Fair CLR 16.7 12.9 78% 76.53 0.0
02 09:15 N 7 14.48 Fair CLR 16.1 13 82% 76.5 0.0
02 08:55 Vrbl 7 14.48 Fair CLR 15.1 12.8 86% 76.5 0.0
02 08:35 NW 7 16.09 Fair CLR 14.4 12.4 88% 76.48 0.0
02 08:15 NW 6 14.48 Fair CLR 13.6 12 90% 76.45 0.0
02 07:55 NW 7 16.09 Fair CLR 13.1 11.3 89% 76.45 0.0
02 07:35 NW 6 12.87 Fair CLR 12.6 11.3 92% 76.43 0.0
02 07:15 NW 7 16.09 Fair CLR 11.9 10.9 94% 76.43 0.0
02 06:55 NW 7 16.09 Fair CLR 11.3 10.4 11.8 11.1 94% 76.38 0.0
02 06:35 Vrbl 6 16.09 Fair CLR 11.2 10.4 95% 76.35 0.0
02 06:15 NW 6 16.09 Fair CLR 11.2 10.6 96% 76.35 0.0
02 05:55 NW 7 16.09 Fair CLR 11.2 10.5 96% 76.33 0.0
02 05:35 NW 6 16.09 Fair CLR 11.2 10.6 96% 76.3 0.0
02 05:15 NW 6 16.09 Fair CLR 11.2 10.9 98% 76.3 0.0
02 04:55 NW 6 16.09 Fair CLR 11.3 11.2 99% 76.28 0.0
02 04:35 NW 6 16.09 Fair CLR 11.4 11.2 99% 76.28 0.0
02 04:15 N 6 16.09 Fair CLR 11.5 11.5 100% 76.28 0.0
02 03:55 NW 7 16.09 Partly Cloudy SCT110 11.6 11.6 100% 76.28 0.0
02 03:35 N 6 16.09 Mostly Cloudy BKN110 11.7 11.7 100% 76.25 0.0
02 03:15 Calm 16.09 Overcast OVC110 11.7 11.7 100% 76.28 0.0
02 02:55 N 6 16.09 Overcast OVC110 11.7 11.7 100% 76.25 0.0
02 02:35 N 6 16.09 Overcast OVC110 11.7 11.7 100% 76.25 0.0
02 02:15 NW 6 16.09 Overcast OVC110 11.7 11.7 100% 76.28 0.0
02 01:55 N 6 16.09 Overcast OVC110 11.7 11.7 100% 76.28 0.0
02 01:35 NW 6 16.09 Overcast OVC095 11.7 11.7 100% 76.28 0.0
02 01:15 NW 6 16.09 Overcast OVC100 11.7 11.7 100% 76.28 0.0
02 00:55 NW 7 16.09 Overcast BKN090 OVC110 11.7 11.7 12.2 11.6 100% 76.28 0.0 0.13
02 00:35 N 6 16.09 Overcast OVC085 11.8 11.8 100% 76.25 0.0
02 00:15 N 7 16.09 Overcast OVC080 11.8 11.8 100% 76.25 0.0
01 23:55 N 6 16.09 Overcast OVC090 11.7 11.7 100% 76.25 0.0
01 23:35 N 9 16.09 Overcast BKN090 OVC130 11.9 11.8 99% 76.25 0.0
01 23:15 NE 9 16.09 Overcast BKN075 OVC085 12.1 11.6 97% 76.25 0.0
01 22:55 NE 9 16.09 Overcast OVC080 12.2 11.7 97% 76.23 0.0
01 22:35 E 11 16.09 Overcast OVC080 12.1 12 99% 76.2 0.0
01 22:15 NE 9 16.09 Overcast SCT090 OVC100 12.1 12.1 100% 76.23 0.0
Date Time (cdt) Wind (kph) Vis. (km) Weather Sky Cond. Air Dwpt Max. Min. Relative Humidity Wind Chill (°C) Heat Index (°C) altimeter (cm) sea level (mb) 1 hr 3 hr 6 hr
6 hour
Temperature (ºC) Pressure Precipitation (cm)